Time;durP1;ratioP1;P1;durP2;ratioP2;P2;SDS_P1;SDS_P2;PMS_P1;PMS_P2;Temp;Humidity;BMP_temperature;BMP_pressure;BME280_temperature;BME280_humidity;BME280_pressure;Samples;Min_cycle;Max_cycle;Signal;HPM_P1;HPM_P2
2022/07/26 00:00:20;;;;;;;25.23;5.00;;;;;;;;;;5019187;28;20069;-79
2022/07/26 00:02:46;;;;;;;22.02;4.13;;;;;;;;;;5039274;28;20040;-78
2022/07/26 00:05:12;;;;;;;15.95;3.97;;;;;;;;;;5017373;28;20038;-78
2022/07/26 00:07:37;;;;;;;19.67;4.13;;;;;;;;;;5056131;28;20467;-79
2022/07/26 00:10:04;;;;;;;32.13;4.50;;;;;;;;;;5038441;28;20034;-79
2022/07/26 00:12:30;;;;;;;20.58;3.70;;;;;;;;;;5052911;28;20065;-78
2022/07/26 00:14:55;;;;;;;28.33;5.55;;;;;;;;;;5053801;28;20045;-79
2022/07/26 00:17:21;;;;;;;17.35;3.42;;;;;;;;;;5021283;28;20489;-78
2022/07/26 00:19:46;;;;;;;19.77;3.72;;;;;;;;;;5040946;28;20033;-79
2022/07/26 00:24:55;;;;;;;16.02;3.97;;;;;;;;;;5048034;28;20024;-80
2022/07/26 00:27:21;;;;;;;25.25;4.60;;;;;;;;;;5055221;28;20032;-79
2022/07/26 00:29:46;;;;;;;18.23;3.08;;;;;;;;;;5036584;28;20057;-79
2022/07/26 00:32:12;;;;;;;17.70;4.05;;;;;;;;;;5050218;28;20021;-78
2022/07/26 00:34:37;;;;;;;24.05;4.22;;;;;;;;;;5029250;28;20068;-78
2022/07/26 00:37:03;;;;;;;21.08;4.05;;;;;;;;;;5022464;28;20029;-78
2022/07/26 00:39:28;;;;;;;21.15;4.45;;;;;;;;;;5057288;28;20119;-78
2022/07/26 00:41:53;;;;;;;19.42;4.15;;;;;;;;;;5058344;28;20488;-78
2022/07/26 00:44:19;;;;;;;20.75;4.90;;;;;;;;;;5021216;28;20071;-78
2022/07/26 00:46:45;;;;;;;29.13;4.75;;;;;;;;;;5044040;28;20040;-78
2022/07/26 00:49:10;;;;;;;15.05;3.53;;;;;;;;;;5032307;28;20033;-79
2022/07/26 00:51:36;;;;;;;24.58;4.55;;;;;;;;;;5043825;28;20417;-78
2022/07/26 00:54:02;;;;;;;22.10;4.85;;;;;;;;;;5022501;28;20025;-80
2022/07/26 00:56:27;;;;;;;21.90;3.90;;;;;;;;;;5042426;28;20025;-79
2022/07/26 00:58:53;;;;;;;23.50;4.60;;;;;;;;;;5040939;28;20092;-78
2022/07/26 01:01:19;;;;;;;20.70;4.57;;;;;;;;;;5038649;28;20299;-79
2022/07/26 01:03:45;;;;;;;22.70;5.07;;;;;;;;;;5025501;28;20468;-78
2022/07/26 01:06:10;;;;;;;29.05;4.30;;;;;;;;;;5044826;28;20028;-78
2022/07/26 01:08:36;;;;;;;19.15;4.55;;;;;;;;;;5026185;28;20485;-79
2022/07/26 01:11:01;;;;;;;27.85;5.03;;;;;;;;;;5027365;28;20477;-79
2022/07/26 01:13:27;;;;;;;22.63;5.85;;;;;;;;;;5022728;28;20030;-78
2022/07/26 01:15:53;;;;;;;25.23;5.22;;;;;;;;;;5023924;28;20049;-77
2022/07/26 01:18:18;;;;;;;26.75;5.43;;;;;;;;;;5044841;28;20032;-78
2022/07/26 01:20:43;;;;;;;26.52;5.22;;;;;;;;;;5041257;28;20058;-79
2022/07/26 01:23:09;;;;;;;24.60;5.30;;;;;;;;;;5062066;28;20075;-79
2022/07/26 01:25:38;;;;;;;26.77;5.75;;;;;;;;;;5054068;28;20033;-79
2022/07/26 01:28:05;;;;;;;22.67;5.18;;;;;;;;;;4997888;28;20025;-79
2022/07/26 01:30:31;;;;;;;28.85;5.88;;;;;;;;;;5024559;28;20040;-78
2022/07/26 01:32:56;;;;;;;23.88;4.47;;;;;;;;;;5044480;28;20039;-78
2022/07/26 01:35:22;;;;;;;33.03;6.15;;;;;;;;;;5047338;28;20087;-78
2022/07/26 01:37:47;;;;;;;26.55;5.50;;;;;;;;;;5023304;28;20043;-79
2022/07/26 01:40:13;;;;;;;31.50;7.05;;;;;;;;;;5020361;28;20048;-79
2022/07/26 01:42:39;;;;;;;29.83;6.22;;;;;;;;;;5025886;28;20175;-79
2022/07/26 01:45:07;;;;;;;28.15;6.38;;;;;;;;;;5032435;28;20020;-79
2022/07/26 01:47:32;;;;;;;26.13;5.65;;;;;;;;;;5039833;28;20029;-79
2022/07/26 01:49:57;;;;;;;31.00;6.05;;;;;;;;;;5047310;28;20051;-79
2022/07/26 01:52:23;;;;;;;32.33;6.55;;;;;;;;;;5052871;28;20141;-79
2022/07/26 01:54:48;;;;;;;35.00;6.00;;;;;;;;;;5058950;28;20516;-78
2022/07/26 01:57:13;;;;;;;22.92;5.75;;;;;;;;;;5054883;28;20070;-79
2022/07/26 01:59:39;;;;;;;32.85;6.22;;;;;;;;;;5038453;28;20064;-78
2022/07/26 02:02:06;;;;;;;30.80;7.10;;;;;;;;;;5041094;28;20064;-79
2022/07/26 02:07:15;;;;;;;34.45;6.88;;;;;;;;;;5041672;28;20036;-77
2022/07/26 02:09:40;;;;;;;28.63;6.45;;;;;;;;;;5050452;28;20062;-79
2022/07/26 02:12:06;;;;;;;30.13;6.50;;;;;;;;;;5038485;28;20033;-78
2022/07/26 02:14:31;;;;;;;32.80;6.93;;;;;;;;;;5001459;28;20555;-79
2022/07/26 02:16:58;;;;;;;30.15;6.78;;;;;;;;;;5053496;28;20043;-79
2022/07/26 02:19:25;;;;;;;32.80;7.43;;;;;;;;;;5039994;28;20051;-79
2022/07/26 02:21:50;;;;;;;33.13;7.68;;;;;;;;;;5051185;28;20037;-80
2022/07/26 02:24:16;;;;;;;29.55;6.85;;;;;;;;;;5036816;28;20048;-78
2022/07/26 02:26:41;;;;;;;36.75;7.55;;;;;;;;;;5039721;28;20025;-79
2022/07/26 02:29:07;;;;;;;27.65;6.80;;;;;;;;;;5043709;28;20075;-78
2022/07/26 02:31:32;;;;;;;36.70;8.20;;;;;;;;;;5031540;28;20060;-79
2022/07/26 02:33:57;;;;;;;40.47;7.50;;;;;;;;;;5053217;28;20033;-78
2022/07/26 02:36:23;;;;;;;35.13;7.47;;;;;;;;;;5039424;28;20088;-79
2022/07/26 02:38:48;;;;;;;31.45;8.18;;;;;;;;;;5057621;28;20524;-78
2022/07/26 02:41:13;;;;;;;38.70;8.57;;;;;;;;;;5015132;28;20066;-79
2022/07/26 02:43:39;;;;;;;33.67;8.38;;;;;;;;;;5028140;28;20059;-78
2022/07/26 02:46:04;;;;;;;41.33;8.63;;;;;;;;;;5030465;28;20052;-78
2022/07/26 02:48:30;;;;;;;35.72;7.78;;;;;;;;;;5048325;28;20489;-79
2022/07/26 02:50:55;;;;;;;44.47;8.85;;;;;;;;;;5050182;28;20037;-78
2022/07/26 02:53:21;;;;;;;35.47;8.73;;;;;;;;;;5042710;28;20069;-78
2022/07/26 02:55:46;;;;;;;35.08;8.90;;;;;;;;;;5032364;28;20056;-78
2022/07/26 02:58:11;;;;;;;33.60;8.75;;;;;;;;;;5019409;28;20067;-78
2022/07/26 03:00:37;;;;;;;25.35;7.95;;;;;;;;;;5023859;28;21905;-79
2022/07/26 03:03:02;;;;;;;28.40;7.82;;;;;;;;;;5053058;28;20044;-79
2022/07/26 03:05:28;;;;;;;28.17;8.18;;;;;;;;;;5022688;28;20034;-78
2022/07/26 03:07:53;;;;;;;32.10;8.02;;;;;;;;;;5002303;28;20025;-78
2022/07/26 03:10:18;;;;;;;35.40;8.75;;;;;;;;;;5036923;28;20052;-79
2022/07/26 03:12:44;;;;;;;49.60;9.93;;;;;;;;;;5029474;28;20052;-78
2022/07/26 03:15:10;;;;;;;32.33;8.93;;;;;;;;;;5009102;28;20043;-80
2022/07/26 03:17:35;;;;;;;40.75;8.60;;;;;;;;;;5013787;28;20056;-79
2022/07/26 03:20:01;;;;;;;37.72;9.60;;;;;;;;;;5027607;28;20022;-79
2022/07/26 03:22:26;;;;;;;37.08;9.80;;;;;;;;;;5036097;28;20127;-79
2022/07/26 03:24:52;;;;;;;41.28;9.57;;;;;;;;;;5014685;28;20054;-79
2022/07/26 03:27:17;;;;;;;32.10;8.63;;;;;;;;;;5052702;28;20059;-78
2022/07/26 03:29:42;;;;;;;34.70;10.38;;;;;;;;;;5003776;28;20041;-79
2022/07/26 03:32:08;;;;;;;46.03;10.57;;;;;;;;;;5021163;28;20045;-79
2022/07/26 03:34:34;;;;;;;45.40;9.88;;;;;;;;;;5050899;28;20477;-78
2022/07/26 03:36:59;;;;;;;35.67;10.18;;;;;;;;;;5056124;28;20029;-79
2022/07/26 03:39:25;;;;;;;33.47;9.30;;;;;;;;;;5055076;28;20496;-78
2022/07/26 03:41:50;;;;;;;35.55;9.13;;;;;;;;;;5039683;28;20045;-79
2022/07/26 03:44:15;;;;;;;34.83;9.30;;;;;;;;;;5029940;28;20056;-79
2022/07/26 03:46:41;;;;;;;41.10;10.85;;;;;;;;;;5024844;28;20117;-79
2022/07/26 03:49:06;;;;;;;27.10;10.13;;;;;;;;;;5033169;28;20037;-79
2022/07/26 03:51:32;;;;;;;30.55;9.15;;;;;;;;;;5033037;28;20025;-79
2022/07/26 03:53:58;;;;;;;32.15;8.90;;;;;;;;;;5048071;28;20041;-79
2022/07/26 03:56:33;;;;;;;32.33;9.00;;;;;;;;;;5052331;28;20040;-79
2022/07/26 03:59:06;;;;;;;30.95;8.85;;;;;;;;;;5021781;28;20036;-79
2022/07/26 04:01:31;;;;;;;26.55;8.73;;;;;;;;;;5026658;28;20500;-78
2022/07/26 04:03:57;;;;;;;27.67;7.60;;;;;;;;;;5023180;28;20025;-79
2022/07/26 04:06:22;;;;;;;23.75;8.18;;;;;;;;;;5044145;28;20744;-79
2022/07/26 04:08:47;;;;;;;33.78;8.48;;;;;;;;;;5024346;28;20119;-77
2022/07/26 04:11:13;;;;;;;32.50;8.57;;;;;;;;;;5068789;28;20077;-79
2022/07/26 04:13:38;;;;;;;22.45;8.05;;;;;;;;;;5037126;28;20507;-78
2022/07/26 04:16:04;;;;;;;24.60;6.82;;;;;;;;;;5012949;28;20032;-78
2022/07/26 04:18:29;;;;;;;19.77;6.53;;;;;;;;;;5016911;28;20383;-79
2022/07/26 04:20:55;;;;;;;15.82;7.18;;;;;;;;;;5030716;28;20508;-73
2022/07/26 04:23:20;;;;;;;20.70;7.80;;;;;;;;;;5045341;28;20502;-72
2022/07/26 04:25:45;;;;;;;13.18;7.78;;;;;;;;;;5069625;28;20048;-72
2022/07/26 04:28:11;;;;;;;14.63;6.40;;;;;;;;;;5063770;28;20049;-73
2022/07/26 04:30:36;;;;;;;16.92;7.35;;;;;;;;;;5063512;28;20060;-72
2022/07/26 04:33:02;;;;;;;17.23;7.20;;;;;;;;;;5034990;28;20096;-71
2022/07/26 04:35:27;;;;;;;12.68;6.82;;;;;;;;;;5064883;28;20084;-79
2022/07/26 04:37:52;;;;;;;17.30;7.22;;;;;;;;;;5036067;28;20258;-79
2022/07/26 04:40:20;;;;;;;16.83;7.45;;;;;;;;;;5044486;28;20071;-79
2022/07/26 04:42:45;;;;;;;20.30;7.03;;;;;;;;;;5029855;28;20063;-78
2022/07/26 04:45:11;;;;;;;14.10;6.90;;;;;;;;;;5069028;28;20442;-78
2022/07/26 04:47:40;;;;;;;15.48;7.65;;;;;;;;;;5046926;28;20432;-79
2022/07/26 04:50:05;;;;;;;23.40;7.60;;;;;;;;;;5014197;28;20086;-80
2022/07/26 04:52:31;;;;;;;18.52;6.65;;;;;;;;;;5015312;28;20561;-79
2022/07/26 04:54:56;;;;;;;17.17;6.18;;;;;;;;;;5039090;28;20053;-78
2022/07/26 04:57:22;;;;;;;14.38;6.60;;;;;;;;;;5056466;28;20135;-79
2022/07/26 04:59:47;;;;;;;14.65;6.18;;;;;;;;;;5026123;28;20089;-79
2022/07/26 05:02:14;;;;;;;13.20;6.00;;;;;;;;;;5043716;28;20052;-79
2022/07/26 05:04:40;;;;;;;13.90;5.40;;;;;;;;;;5070304;28;20044;-80
2022/07/26 05:07:06;;;;;;;17.38;5.97;;;;;;;;;;5034589;28;20036;-79
2022/07/26 05:09:31;;;;;;;18.38;6.63;;;;;;;;;;5035993;28;20038;-79
2022/07/26 05:11:57;;;;;;;15.45;5.85;;;;;;;;;;5054693;28;20039;-78
2022/07/26 05:14:22;;;;;;;12.65;5.88;;;;;;;;;;5023930;28;20052;-78
2022/07/26 05:16:47;;;;;;;16.30;6.20;;;;;;;;;;5022187;28;20029;-78
2022/07/26 05:19:13;;;;;;;14.40;5.93;;;;;;;;;;5016989;28;20052;-78
2022/07/26 05:21:38;;;;;;;14.95;5.72;;;;;;;;;;5051718;28;20044;-79
2022/07/26 05:24:04;;;;;;;13.25;5.60;;;;;;;;;;5039586;28;20071;-79
2022/07/26 05:26:30;;;;;;;11.52;5.95;;;;;;;;;;5022751;28;20078;-79
2022/07/26 05:28:55;;;;;;;15.38;6.35;;;;;;;;;;5021050;28;20033;-79
2022/07/26 05:31:20;;;;;;;15.23;5.97;;;;;;;;;;5058680;28;20094;-80
2022/07/26 05:33:46;;;;;;;20.67;6.63;;;;;;;;;;5067046;28;20477;-79
2022/07/26 05:36:11;;;;;;;11.65;5.68;;;;;;;;;;5030252;28;20025;-79
2022/07/26 05:38:39;;;;;;;13.00;5.18;;;;;;;;;;5056539;28;20037;-79
2022/07/26 05:41:05;;;;;;;13.50;5.68;;;;;;;;;;4980303;28;20039;-79
2022/07/26 05:43:30;;;;;;;13.52;4.80;;;;;;;;;;5036457;28;20048;-78
2022/07/26 05:45:56;;;;;;;14.40;4.95;;;;;;;;;;5034266;28;20524;-79
2022/07/26 05:48:21;;;;;;;17.80;6.03;;;;;;;;;;5052636;28;20025;-79
2022/07/26 05:50:47;;;;;;;13.88;4.97;;;;;;;;;;5022121;28;20053;-79
2022/07/26 05:53:12;;;;;;;13.48;4.80;;;;;;;;;;5002061;28;20064;-79
2022/07/26 05:55:38;;;;;;;17.35;5.30;;;;;;;;;;5040112;28;20048;-79
2022/07/26 05:58:03;;;;;;;11.20;4.47;;;;;;;;;;5051870;28;20467;-79
2022/07/26 06:00:28;;;;;;;13.82;4.30;;;;;;;;;;5030603;28;20068;-80
2022/07/26 06:02:54;;;;;;;13.98;4.20;;;;;;;;;;5051775;28;20067;-79
2022/07/26 06:05:20;;;;;;;14.23;3.95;;;;;;;;;;5017626;28;20396;-80
2022/07/26 06:07:46;;;;;;;10.98;3.67;;;;;;;;;;5042744;28;20041;-79
2022/07/26 06:10:11;;;;;;;10.35;3.28;;;;;;;;;;5008530;28;20056;-78
2022/07/26 06:12:36;;;;;;;6.25;2.42;;;;;;;;;;5024977;28;20095;-78
2022/07/26 06:15:03;;;;;;;7.15;2.60;;;;;;;;;;5033749;28;20039;-77
2022/07/26 06:17:28;;;;;;;7.00;2.10;;;;;;;;;;5012894;28;20039;-79
2022/07/26 06:19:55;;;;;;;10.10;2.65;;;;;;;;;;5039442;28;20116;-80
2022/07/26 06:22:21;;;;;;;9.07;2.00;;;;;;;;;;5031424;28;20152;-77
2022/07/26 06:24:46;;;;;;;15.93;2.88;;;;;;;;;;5022884;28;20454;-79
2022/07/26 06:27:11;;;;;;;8.95;2.42;;;;;;;;;;5038072;28;20063;-79
2022/07/26 06:29:37;;;;;;;5.97;1.80;;;;;;;;;;5026558;28;20036;-78
2022/07/26 06:32:02;;;;;;;11.73;2.45;;;;;;;;;;5050627;28;20044;-79
2022/07/26 06:34:28;;;;;;;13.68;2.17;;;;;;;;;;5051795;28;20106;-81
2022/07/26 06:36:53;;;;;;;10.15;2.45;;;;;;;;;;5033250;28;20053;-79
2022/07/26 06:39:18;;;;;;;9.63;1.58;;;;;;;;;;5064891;28;20039;-79
2022/07/26 06:41:44;;;;;;;7.32;1.17;;;;;;;;;;5031871;28;20041;-78
2022/07/26 06:44:09;;;;;;;7.93;1.80;;;;;;;;;;5059667;28;20544;-78
2022/07/26 06:46:35;;;;;;;4.82;1.30;;;;;;;;;;5059395;28;20029;-79
2022/07/26 06:49:00;;;;;;;6.38;1.00;;;;;;;;;;5024776;28;20468;-78
2022/07/26 06:51:26;;;;;;;7.05;1.60;;;;;;;;;;5033173;28;20053;-78
2022/07/26 06:53:51;;;;;;;5.25;1.50;;;;;;;;;;5034476;28;20087;-78
2022/07/26 06:56:17;;;;;;;12.82;1.60;;;;;;;;;;5028897;28;20123;-78
2022/07/26 06:58:42;;;;;;;9.20;1.45;;;;;;;;;;5046294;28;20555;-78
2022/07/26 07:01:08;;;;;;;9.43;1.73;;;;;;;;;;5000444;28;20052;-79
2022/07/26 07:03:33;;;;;;;6.32;1.33;;;;;;;;;;5018200;28;20128;-78
2022/07/26 07:05:58;;;;;;;6.22;1.30;;;;;;;;;;5018146;28;20551;-79
2022/07/26 07:08:24;;;;;;;11.20;2.00;;;;;;;;;;5018937;28;20079;-79
2022/07/26 07:10:50;;;;;;;5.40;1.13;;;;;;;;;;5039379;28;20053;-79
2022/07/26 07:13:16;;;;;;;7.60;1.15;;;;;;;;;;5058171;28;20500;-79
2022/07/26 07:15:41;;;;;;;6.38;1.20;;;;;;;;;;5049537;28;20052;-77
2022/07/26 07:18:06;;;;;;;11.55;1.40;;;;;;;;;;5051064;28;20485;-78
2022/07/26 07:20:33;;;;;;;3.85;0.70;;;;;;;;;;5022327;28;20055;-77
2022/07/26 07:22:58;;;;;;;4.07;0.82;;;;;;;;;;5035256;28;20045;-78
2022/07/26 07:25:24;;;;;;;5.68;1.10;;;;;;;;;;5018481;28;20083;-78
2022/07/26 07:27:50;;;;;;;6.28;0.90;;;;;;;;;;4995846;28;20032;-79
2022/07/26 07:30:16;;;;;;;4.75;0.75;;;;;;;;;;5023611;28;20037;-79
2022/07/26 07:32:41;;;;;;;6.93;1.50;;;;;;;;;;5060668;28;20050;-79
2022/07/26 07:35:09;;;;;;;4.10;0.90;;;;;;;;;;5040761;28;20040;-79
2022/07/26 07:37:34;;;;;;;5.13;0.70;;;;;;;;;;5052870;28;20029;-77
2022/07/26 07:40:03;;;;;;;5.03;0.90;;;;;;;;;;5045753;28;20021;-77
2022/07/26 07:42:29;;;;;;;4.18;0.70;;;;;;;;;;5064142;28;20044;-80
2022/07/26 07:44:54;;;;;;;8.93;0.93;;;;;;;;;;5042405;28;20052;-77
2022/07/26 07:47:21;;;;;;;6.10;1.10;;;;;;;;;;5065113;28;20461;-78
2022/07/26 07:49:46;;;;;;;16.75;2.20;;;;;;;;;;5050647;28;20206;-79
2022/07/26 07:52:11;;;;;;;7.07;1.25;;;;;;;;;;5040119;28;20104;-78
2022/07/26 07:54:37;;;;;;;5.60;1.15;;;;;;;;;;5040042;28;20052;-78
2022/07/26 07:57:02;;;;;;;7.55;1.20;;;;;;;;;;5020251;28;20044;-78
2022/07/26 07:59:27;;;;;;;6.78;1.17;;;;;;;;;;5024377;28;20040;-79
2022/07/26 08:01:53;;;;;;;6.60;0.85;;;;;;;;;;5007249;28;20143;-78
2022/07/26 08:04:18;;;;;;;5.65;0.70;;;;;;;;;;5032108;28;20111;-79
2022/07/26 08:06:43;;;;;;;5.50;0.90;;;;;;;;;;5043076;28;20496;-78
2022/07/26 08:09:09;;;;;;;3.97;0.90;;;;;;;;;;5064650;28;20048;-78
2022/07/26 08:11:34;;;;;;;5.75;0.80;;;;;;;;;;5031133;28;20554;-78
2022/07/26 08:14:00;;;;;;;6.78;0.95;;;;;;;;;;5040943;28;20064;-78
2022/07/26 08:16:25;;;;;;;4.40;1.00;;;;;;;;;;5018759;28;20029;-78
2022/07/26 08:18:51;;;;;;;4.07;0.70;;;;;;;;;;5020516;28;20057;-79
2022/07/26 08:21:16;;;;;;;3.60;0.70;;;;;;;;;;5043751;28;20480;-78
2022/07/26 08:23:41;;;;;;;3.70;0.90;;;;;;;;;;5039671;28;20064;-78
2022/07/26 08:26:07;;;;;;;4.93;0.60;;;;;;;;;;5005834;28;20060;-78
2022/07/26 08:28:32;;;;;;;3.95;0.93;;;;;;;;;;5062715;28;20051;-78
2022/07/26 08:30:57;;;;;;;4.72;0.70;;;;;;;;;;5015444;28;20208;-78
2022/07/26 08:33:23;;;;;;;3.47;0.82;;;;;;;;;;5027585;28;20510;-78
2022/07/26 08:35:48;;;;;;;7.10;1.05;;;;;;;;;;5011565;28;20035;-78
2022/07/26 08:38:14;;;;;;;4.90;0.93;;;;;;;;;;5044692;28;20028;-78
2022/07/26 08:40:39;;;;;;;6.47;0.73;;;;;;;;;;5034947;28;20037;-78
2022/07/26 08:43:05;;;;;;;4.80;1.00;;;;;;;;;;5052802;28;20036;-79
2022/07/26 08:45:30;;;;;;;5.07;0.82;;;;;;;;;;5032948;28;20052;-78
2022/07/26 08:47:56;;;;;;;7.22;1.27;;;;;;;;;;5059757;28;20029;-79
2022/07/26 08:50:22;;;;;;;3.50;0.85;;;;;;;;;;5060408;28;20488;-79
2022/07/26 08:52:48;;;;;;;2.33;0.68;;;;;;;;;;5053190;28;20025;-79
2022/07/26 08:55:18;;;;;;;4.40;0.63;;;;;;;;;;5037930;28;20028;-79
2022/07/26 08:57:43;;;;;;;4.53;0.70;;;;;;;;;;5003519;28;20041;-79
2022/07/26 09:00:23;;;;;;;4.72;0.80;;;;;;;;;;5026099;28;20037;-79
2022/07/26 09:02:49;;;;;;;4.03;0.80;;;;;;;;;;5038009;28;20036;-78
2022/07/26 09:05:14;;;;;;;2.83;0.65;;;;;;;;;;5058354;28;20399;-78
2022/07/26 09:07:40;;;;;;;3.58;0.68;;;;;;;;;;4999222;28;20040;-79
2022/07/26 09:10:09;;;;;;;2.67;0.88;;;;;;;;;;5021162;28;20458;-78
2022/07/26 09:12:35;;;;;;;4.15;0.80;;;;;;;;;;5029280;28;20046;-78
2022/07/26 09:15:00;;;;;;;4.85;0.75;;;;;;;;;;5023933;28;20021;-80
2022/07/26 09:17:44;;;;;;;4.75;0.95;;;;;;;;;;5035728;28;20106;-79
2022/07/26 09:20:11;;;;;;;5.03;0.77;;;;;;;;;;5035485;28;20059;-78
2022/07/26 09:22:38;;;;;;;4.30;0.98;;;;;;;;;;5004139;28;20041;-79
2022/07/26 09:25:24;;;;;;;2.97;0.80;;;;;;;;;;5028818;28;20021;-78
2022/07/26 09:27:50;;;;;;;5.43;0.68;;;;;;;;;;5003942;28;20032;-79
2022/07/26 09:30:15;;;;;;;4.93;0.90;;;;;;;;;;5007124;28;20393;-78
2022/07/26 09:32:54;;;;;;;3.88;0.80;;;;;;;;;;5009309;28;20439;-78
2022/07/26 09:35:20;;;;;;;3.25;1.02;;;;;;;;;;5061726;28;20032;-79
2022/07/26 09:37:47;;;;;;;4.47;0.90;;;;;;;;;;5045099;28;20032;-79
2022/07/26 09:40:13;;;;;;;2.70;0.70;;;;;;;;;;5022062;28;20481;-79
2022/07/26 09:43:01;;;;;;;4.97;1.10;;;;;;;;;;5032527;28;20523;-79
2022/07/26 09:45:31;;;;;;;6.65;0.90;;;;;;;;;;5019565;28;20064;-79
2022/07/26 09:47:57;;;;;;;5.15;0.80;;;;;;;;;;5061487;28;20036;-79
2022/07/26 09:50:25;;;;;;;3.95;0.50;;;;;;;;;;5038565;28;20041;-80
2022/07/26 09:53:03;;;;;;;5.30;1.08;;;;;;;;;;5033008;28;20025;-78
2022/07/26 09:55:29;;;;;;;6.88;1.08;;;;;;;;;;5015313;28;20379;-78
2022/07/26 09:57:54;;;;;;;6.50;0.95;;;;;;;;;;5027491;28;20029;-78
2022/07/26 10:00:20;;;;;;;5.75;1.33;;;;;;;;;;5066955;28;20036;-80
2022/07/26 10:02:45;;;;;;;4.55;0.88;;;;;;;;;;5029856;28;20043;-78
2022/07/26 10:05:11;;;;;;;7.45;0.95;;;;;;;;;;5067311;28;20111;-79
2022/07/26 10:07:36;;;;;;;7.35;1.10;;;;;;;;;;5037853;28;20029;-79
2022/07/26 10:10:07;;;;;;;7.03;1.30;;;;;;;;;;5017121;28;20033;-79
2022/07/26 10:12:33;;;;;;;6.05;1.08;;;;;;;;;;5051723;28;20379;-79
2022/07/26 10:14:58;;;;;;;10.07;1.00;;;;;;;;;;5030861;28;20044;-79
2022/07/26 10:17:30;;;;;;;6.28;1.30;;;;;;;;;;5036419;28;20079;-79
2022/07/26 10:19:57;;;;;;;6.05;1.58;;;;;;;;;;5046986;28;20032;-79
2022/07/26 10:22:26;;;;;;;6.30;1.35;;;;;;;;;;4994785;28;20056;-79
2022/07/26 10:24:52;;;;;;;6.75;1.23;;;;;;;;;;5004402;28;20520;-78
2022/07/26 10:27:37;;;;;;;8.27;1.63;;;;;;;;;;5014674;28;20064;-77
2022/07/26 10:30:21;;;;;;;4.63;1.00;;;;;;;;;;5029416;28;20049;-78
2022/07/26 10:32:49;;;;;;;5.93;1.20;;;;;;;;;;5017097;28;20063;-79
2022/07/26 10:35:41;;;;;;;7.85;1.83;;;;;;;;;;5055025;28;20033;-79
2022/07/26 10:38:07;;;;;;;6.70;1.27;;;;;;;;;;5067513;28;20048;-80
2022/07/26 10:40:32;;;;;;;8.88;1.27;;;;;;;;;;5049647;28;20025;-79
2022/07/26 10:43:14;;;;;;;8.60;1.23;;;;;;;;;;5060181;28;20098;-79
2022/07/26 10:45:39;;;;;;;7.05;1.02;;;;;;;;;;5054647;28;20047;-79
2022/07/26 10:48:15;;;;;;;6.43;1.25;;;;;;;;;;5018817;28;20561;-79
2022/07/26 10:50:42;;;;;;;8.50;1.45;;;;;;;;;;5044790;28;20029;-79
2022/07/26 10:53:09;;;;;;;7.00;1.63;;;;;;;;;;5034052;28;20040;-79
2022/07/26 10:55:47;;;;;;;10.90;1.55;;;;;;;;;;5066579;28;20028;-80
2022/07/26 10:58:13;;;;;;;6.75;1.52;;;;;;;;;;5047006;28;20033;-80
2022/07/26 11:00:38;;;;;;;9.48;1.90;;;;;;;;;;5009463;28;20098;-80
2022/07/26 11:03:07;;;;;;;5.47;1.27;;;;;;;;;;5038361;28;20044;-79
2022/07/26 11:05:35;;;;;;;11.23;2.53;;;;;;;;;;5027357;28;20396;-78
2022/07/26 11:08:07;;;;;;;6.75;1.30;;;;;;;;;;5037321;28;20021;-79
2022/07/26 11:10:35;;;;;;;11.80;1.80;;;;;;;;;;5028764;28;20025;-79
2022/07/26 11:13:02;;;;;;;9.38;2.28;;;;;;;;;;5004342;28;20146;-80
2022/07/26 11:15:28;;;;;;;7.57;1.25;;;;;;;;;;5041937;28;20554;-79
2022/07/26 11:18:34;;;;;;;8.27;1.42;;;;;;;;;;5056884;28;20025;-79
2022/07/26 11:21:16;;;;;;;10.43;2.42;;;;;;;;;;4977693;28;20032;-78
2022/07/26 11:23:45;;;;;;;14.57;2.45;;;;;;;;;;5036558;28;20033;-79
2022/07/26 11:26:10;;;;;;;10.38;2.60;;;;;;;;;;5050072;28;20033;-79
2022/07/26 11:28:52;;;;;;;13.60;2.40;;;;;;;;;;5068704;28;20098;-80
2022/07/26 11:31:18;;;;;;;13.88;2.25;;;;;;;;;;5021861;28;20067;-79
2022/07/26 11:33:45;;;;;;;11.38;1.70;;;;;;;;;;5024613;28;20037;-79
2022/07/26 11:36:11;;;;;;;11.50;2.15;;;;;;;;;;4987358;28;20100;-80
2022/07/26 11:38:50;;;;;;;15.27;2.30;;;;;;;;;;5040408;28;20040;-79
2022/07/26 11:41:22;;;;;;;10.52;2.08;;;;;;;;;;5000559;28;20029;-79
2022/07/26 11:43:48;;;;;;;8.50;2.33;;;;;;;;;;5033256;28;20106;-80
2022/07/26 11:46:14;;;;;;;8.43;1.95;;;;;;;;;;5056249;28;20426;-80
2022/07/26 11:48:51;;;;;;;11.65;1.83;;;;;;;;;;5055066;28;20056;-80
2022/07/26 11:51:21;;;;;;;9.45;1.70;;;;;;;;;;5027204;28;20031;-80
2022/07/26 11:53:46;;;;;;;7.95;1.55;;;;;;;;;;5053052;28;20039;-80
2022/07/26 11:56:21;;;;;;;11.00;1.65;;;;;;;;;;5035657;28;20025;-80
2022/07/26 11:58:49;;;;;;;9.25;1.50;;;;;;;;;;5033871;28;20025;-80
2022/07/26 12:01:16;;;;;;;8.35;1.92;;;;;;;;;;5039500;28;20064;-78
2022/07/26 12:03:46;;;;;;;8.98;2.13;;;;;;;;;;5071997;28;20118;-79
2022/07/26 12:06:13;;;;;;;9.10;1.88;;;;;;;;;;5038133;28;20033;-79
2022/07/26 12:08:41;;;;;;;12.73;2.78;;;;;;;;;;5038093;28;20381;-80
2022/07/26 12:11:07;;;;;;;11.50;1.70;;;;;;;;;;5063120;28;20476;-79
2022/07/26 12:13:32;;;;;;;12.10;2.45;;;;;;;;;;5042635;28;20029;-80
2022/07/26 12:15:58;;;;;;;12.65;2.00;;;;;;;;;;5015085;28;20051;-80
2022/07/26 12:18:27;;;;;;;18.35;2.38;;;;;;;;;;5034992;28;20043;-80
2022/07/26 12:21:03;;;;;;;7.90;2.00;;;;;;;;;;5033743;28;20173;-80
2022/07/26 12:23:58;;;;;;;13.05;2.35;;;;;;;;;;5053045;28;20041;-80
2022/07/26 12:26:25;;;;;;;15.57;2.72;;;;;;;;;;5028381;28;20052;-80
2022/07/26 12:28:50;;;;;;;11.80;2.10;;;;;;;;;;5063849;28;20032;-80
2022/07/26 12:31:29;;;;;;;10.40;2.00;;;;;;;;;;5061682;28;20029;-80
2022/07/26 12:33:55;;;;;;;10.70;2.70;;;;;;;;;;5035924;28;20033;-79
2022/07/26 12:36:21;;;;;;;20.27;3.10;;;;;;;;;;4997285;28;20040;-80
2022/07/26 12:38:46;;;;;;;13.38;2.60;;;;;;;;;;5051941;28;20340;-79
2022/07/26 12:41:12;;;;;;;10.10;2.55;;;;;;;;;;5067598;28;20370;-78
2022/07/26 12:43:38;;;;;;;13.68;2.78;;;;;;;;;;5043841;28;20104;-78
2022/07/26 12:46:04;;;;;;;9.40;2.00;;;;;;;;;;5034093;28;20485;-79
2022/07/26 12:48:29;;;;;;;10.00;1.98;;;;;;;;;;5052055;28;20075;-79
2022/07/26 12:50:56;;;;;;;9.27;2.45;;;;;;;;;;5021223;28;20095;-79
2022/07/26 12:53:21;;;;;;;12.10;1.75;;;;;;;;;;5027317;28;20405;-79
2022/07/26 12:55:47;;;;;;;13.95;2.22;;;;;;;;;;5028940;28;20025;-80
2022/07/26 12:58:12;;;;;;;7.50;1.98;;;;;;;;;;5024237;28;20029;-80
2022/07/26 13:00:38;;;;;;;8.75;2.03;;;;;;;;;;5039133;28;20128;-80
2022/07/26 13:03:03;;;;;;;18.23;2.75;;;;;;;;;;5048652;28;20068;-80
2022/07/26 13:05:30;;;;;;;18.90;2.88;;;;;;;;;;5036221;28;20036;-79
2022/07/26 13:07:55;;;;;;;14.32;2.25;;;;;;;;;;5023093;28;20056;-78
2022/07/26 13:10:21;;;;;;;10.65;1.88;;;;;;;;;;5048184;28;20480;-78
2022/07/26 13:12:46;;;;;;;7.13;2.03;;;;;;;;;;5040471;28;20037;-80
2022/07/26 13:15:12;;;;;;;10.10;2.60;;;;;;;;;;5012581;28;20104;-79
2022/07/26 13:17:37;;;;;;;9.23;1.60;;;;;;;;;;5034501;28;20048;-79
2022/07/26 13:20:03;;;;;;;13.07;2.35;;;;;;;;;;5010815;28;20052;-79
2022/07/26 13:22:28;;;;;;;10.05;2.35;;;;;;;;;;5062834;28;20040;-79
2022/07/26 13:24:53;;;;;;;9.95;2.08;;;;;;;;;;5031273;28;20021;-79
2022/07/26 13:27:19;;;;;;;9.32;2.10;;;;;;;;;;5013242;28;20434;-79
2022/07/26 13:29:44;;;;;;;8.05;1.98;;;;;;;;;;5059342;28;20052;-79
2022/07/26 13:32:09;;;;;;;9.25;2.38;;;;;;;;;;5032428;28;20067;-79
2022/07/26 13:34:35;;;;;;;8.32;2.10;;;;;;;;;;5033931;28;20041;-79
2022/07/26 13:37:00;;;;;;;8.27;1.70;;;;;;;;;;5043462;28;20070;-79
2022/07/26 13:39:26;;;;;;;13.38;1.67;;;;;;;;;;5040912;28;20029;-79
2022/07/26 13:41:52;;;;;;;8.18;1.63;;;;;;;;;;5059861;28;20560;-79
2022/07/26 13:44:17;;;;;;;8.95;1.77;;;;;;;;;;5035937;28;20537;-79
2022/07/26 13:46:43;;;;;;;8.23;1.60;;;;;;;;;;5035182;28;20053;-79
2022/07/26 13:49:08;;;;;;;6.63;1.65;;;;;;;;;;5041657;28;20033;-79
2022/07/26 13:54:20;;;;;;;14.45;2.08;;;;;;;;;;5033008;28;20032;-80
2022/07/26 13:56:45;;;;;;;10.35;2.05;;;;;;;;;;5024769;28;20094;-78
2022/07/26 13:59:10;;;;;;;10.52;1.67;;;;;;;;;;5014542;28;20041;-79
2022/07/26 14:01:36;;;;;;;9.93;2.33;;;;;;;;;;5015721;28;20168;-79
2022/07/26 14:04:06;;;;;;;8.48;1.75;;;;;;;;;;5032904;28;20120;-79
2022/07/26 14:06:34;;;;;;;9.63;2.08;;;;;;;;;;5044228;28;20103;-79
2022/07/26 14:09:00;;;;;;;10.68;1.70;;;;;;;;;;5043453;28;20051;-79
2022/07/26 14:11:26;;;;;;;7.47;2.03;;;;;;;;;;5052792;28;20024;-79
2022/07/26 14:13:52;;;;;;;6.47;1.60;;;;;;;;;;5027188;28;20047;-79
2022/07/26 14:16:17;;;;;;;6.78;1.48;;;;;;;;;;5001145;28;20478;-79
2022/07/26 14:18:42;;;;;;;11.07;1.83;;;;;;;;;;5015158;28;20089;-78
2022/07/26 14:21:08;;;;;;;7.95;1.45;;;;;;;;;;5026738;28;20056;-80
2022/07/26 14:23:33;;;;;;;10.55;2.05;;;;;;;;;;5061620;28;20052;-80
2022/07/26 14:25:58;;;;;;;9.43;1.80;;;;;;;;;;5051000;28;20439;-79
2022/07/26 14:28:24;;;;;;;3.55;0.93;;;;;;;;;;5043089;28;20101;-79
2022/07/26 14:30:49;;;;;;;5.80;1.42;;;;;;;;;;5043132;28;20397;-79
2022/07/26 14:33:15;;;;;;;10.05;1.98;;;;;;;;;;5061241;28;20029;-79
2022/07/26 14:35:43;;;;;;;8.95;1.65;;;;;;;;;;5030878;28;20066;-79
2022/07/26 14:38:09;;;;;;;6.97;1.75;;;;;;;;;;5036121;28;20094;-80
2022/07/26 14:40:34;;;;;;;10.77;1.95;;;;;;;;;;5031978;28;20032;-80